KL104P EGKK-EHAM
Flight info
| Callsign | KL104P |
|---|---|
| Flight time | 0h 38m |
| Altitude | 29000 |
| Route | FRANE M604 GASBA M197 REDFA |
| Aircraft | B739/M-LSDE2E3FGHIRWXY/LB1 |
Departure
| Time | 2026-05-07 14:53 |
|---|---|
| Airport | London Gatwick Airport (EGKK) |
Arrival
| Time | 2026-05-07 15:31 |
|---|---|
| Airport | Amsterdam Airport Schiphol (EHAM) |
| Time | Latitude | Longitude | Altitude | Speed | Heading |
|---|---|---|---|---|---|
| 2026-05-07 14:21 | 51.15493 | -0.16906 | 212 ft | 0 kts | 349° |
| 2026-05-07 14:43 | 51.15484 | -0.16903 | 215 ft | 4 kts | 349° |
| 2026-05-07 14:43 | 51.15457 | -0.16895 | 215 ft | 4 kts | 349° |
| 2026-05-07 14:43 | 51.15431 | -0.16887 | 210 ft | 4 kts | 348° |
| 2026-05-07 14:44 | 51.15419 | -0.16883 | 211 ft | 0 kts | 347° |
| 2026-05-07 14:46 | 51.15429 | -0.16898 | 211 ft | 4 kts | 303° |
| 2026-05-07 14:46 | 51.15429 | -0.16973 | 209 ft | 10 kts | 267° |
| 2026-05-07 14:46 | 51.15416 | -0.17078 | 214 ft | 11 kts | 257° |
| 2026-05-07 14:47 | 51.15383 | -0.17222 | 210 ft | 16 kts | 253° |
| 2026-05-07 14:47 | 51.15344 | -0.17357 | 210 ft | 14 kts | 217° |
| 2026-05-07 14:47 | 51.15303 | -0.17433 | 213 ft | 11 kts | 249° |
| 2026-05-07 14:47 | 51.15285 | -0.17584 | 206 ft | 17 kts | 261° |
| 2026-05-07 14:48 | 51.15255 | -0.17787 | 207 ft | 21 kts | 257° |
| 2026-05-07 14:48 | 51.15219 | -0.18042 | 205 ft | 26 kts | 258° |
| 2026-05-07 14:48 | 51.15188 | -0.18293 | 213 ft | 24 kts | 263° |
| 2026-05-07 14:48 | 51.15153 | -0.18573 | 204 ft | 28 kts | 259° |
| 2026-05-07 14:49 | 51.15123 | -0.18793 | 206 ft | 17 kts | 258° |
| 2026-05-07 14:49 | 51.15095 | -0.19004 | 206 ft | 22 kts | 257° |
| 2026-05-07 14:49 | 51.15058 | -0.19264 | 204 ft | 26 kts | 257° |
| 2026-05-07 14:49 | 51.15023 | -0.19524 | 207 ft | 18 kts | 257° |
| 2026-05-07 14:50 | 51.14995 | -0.19729 | 208 ft | 21 kts | 258° |
| 2026-05-07 14:50 | 51.14960 | -0.19983 | 204 ft | 26 kts | 257° |
| 2026-05-07 14:50 | 51.14918 | -0.20285 | 204 ft | 30 kts | 257° |
| 2026-05-07 14:50 | 51.14881 | -0.20552 | 213 ft | 12 kts | 257° |
| 2026-05-07 14:51 | 51.14857 | -0.20716 | 204 ft | 18 kts | 257° |
| 2026-05-07 14:51 | 51.14830 | -0.20912 | 207 ft | 17 kts | 258° |
| 2026-05-07 14:51 | 51.14807 | -0.21082 | 210 ft | 16 kts | 257° |
| 2026-05-07 14:51 | 51.14779 | -0.21223 | 207 ft | 15 kts | 255° |
| 2026-05-07 14:52 | 51.14747 | -0.21379 | 210 ft | 12 kts | 225° |
| 2026-05-07 14:52 | 51.14660 | -0.21361 | 210 ft | 16 kts | 141° |
| 2026-05-07 14:52 | 51.14565 | -0.21295 | 210 ft | 16 kts | 150° |
| 2026-05-07 14:52 | 51.14527 | -0.21123 | 216 ft | 22 kts | 78° |
| 2026-05-07 14:53 | 51.14560 | -0.20870 | 207 ft | 58 kts | 78° |
| 2026-05-07 14:53 | 51.14703 | -0.19849 | 212 ft | 127 kts | 78° |
| 2026-05-07 14:53 | 51.14920 | -0.18224 | 370 ft | 164 kts | 80° |
| 2026-05-07 14:53 | 51.15150 | -0.16387 | 1027 ft | 177 kts | 81° |
| 2026-05-07 14:54 | 51.15389 | -0.14378 | 1649 ft | 190 kts | 81° |
| 2026-05-07 14:54 | 51.15655 | -0.12306 | 2540 ft | 190 kts | 78° |
| 2026-05-07 14:54 | 51.15976 | -0.10202 | 3220 ft | 204 kts | 75° |
| 2026-05-07 14:54 | 51.16367 | -0.07905 | 3654 ft | 228 kts | 76° |
| 2026-05-07 14:55 | 51.16733 | -0.05270 | 3971 ft | 260 kts | 78° |
| 2026-05-07 14:55 | 51.16957 | -0.02383 | 4703 ft | 269 kts | 89° |
| 2026-05-07 14:55 | 51.16916 | 0.00695 | 5094 ft | 292 kts | 93° |
| 2026-05-07 14:55 | 51.16807 | 0.04103 | 5373 ft | 322 kts | 93° |
| 2026-05-07 14:56 | 51.16708 | 0.07748 | 6094 ft | 334 kts | 92° |
| 2026-05-07 14:56 | 51.16626 | 0.11469 | 7015 ft | 338 kts | 92° |
| 2026-05-07 14:56 | 51.16552 | 0.15243 | 7761 ft | 343 kts | 92° |
| 2026-05-07 14:56 | 51.16533 | 0.19085 | 8603 ft | 349 kts | 91° |
| 2026-05-07 14:57 | 51.16553 | 0.22981 | 9492 ft | 354 kts | 90° |
| 2026-05-07 14:57 | 51.16572 | 0.26937 | 10278 ft | 360 kts | 91° |
| 2026-05-07 14:57 | 51.16584 | 0.30937 | 11112 ft | 363 kts | 91° |
| 2026-05-07 14:57 | 51.16591 | 0.34990 | 11944 ft | 367 kts | 91° |
| 2026-05-07 14:58 | 51.16594 | 0.39077 | 12765 ft | 371 kts | 91° |
| 2026-05-07 14:58 | 51.16594 | 0.43159 | 13560 ft | 375 kts | 91° |
| 2026-05-07 14:58 | 51.16698 | 0.47336 | 14244 ft | 382 kts | 81° |
| 2026-05-07 14:58 | 51.17615 | 0.51335 | 14882 ft | 390 kts | 59° |
| 2026-05-07 14:59 | 51.19409 | 0.54585 | 15578 ft | 394 kts | 38° |
| 2026-05-07 14:59 | 51.21818 | 0.56672 | 16286 ft | 397 kts | 17° |
| 2026-05-07 14:59 | 51.24517 | 0.57713 | 16997 ft | 400 kts | 11° |
| 2026-05-07 14:59 | 51.27265 | 0.58631 | 17671 ft | 405 kts | 11° |
| 2026-05-07 15:00 | 51.30040 | 0.59601 | 18339 ft | 409 kts | 12° |
| 2026-05-07 15:00 | 51.32826 | 0.60626 | 18955 ft | 413 kts | 12° |
| 2026-05-07 15:00 | 51.35601 | 0.61683 | 19567 ft | 416 kts | 12° |
| 2026-05-07 15:00 | 51.38465 | 0.62779 | 20291 ft | 419 kts | 12° |
| 2026-05-07 15:01 | 51.41278 | 0.63848 | 20881 ft | 423 kts | 12° |
| 2026-05-07 15:01 | 51.44159 | 0.64931 | 21458 ft | 426 kts | 12° |
| 2026-05-07 15:01 | 51.47057 | 0.66019 | 22021 ft | 430 kts | 12° |
| 2026-05-07 15:01 | 51.49982 | 0.67120 | 22587 ft | 433 kts | 12° |
| 2026-05-07 15:02 | 51.52937 | 0.68234 | 23036 ft | 440 kts | 12° |
| 2026-05-07 15:02 | 51.55957 | 0.69374 | 23239 ft | 451 kts | 12° |
| 2026-05-07 15:02 | 51.59028 | 0.70537 | 23644 ft | 456 kts | 12° |
| 2026-05-07 15:02 | 51.62124 | 0.71710 | 24112 ft | 457 kts | 12° |
| 2026-05-07 15:03 | 51.65228 | 0.72889 | 24577 ft | 459 kts | 12° |
| 2026-05-07 15:03 | 51.68341 | 0.74072 | 25016 ft | 461 kts | 12° |
| 2026-05-07 15:03 | 51.71475 | 0.75265 | 25421 ft | 464 kts | 12° |
| 2026-05-07 15:03 | 51.74629 | 0.76468 | 25815 ft | 467 kts | 12° |
| 2026-05-07 15:04 | 51.77800 | 0.77709 | 26208 ft | 470 kts | 14° |
| 2026-05-07 15:04 | 51.80879 | 0.79519 | 26633 ft | 473 kts | 25° |
| 2026-05-07 15:04 | 51.83751 | 0.82093 | 27257 ft | 470 kts | 33° |
| 2026-05-07 15:04 | 51.86228 | 0.85413 | 27838 ft | 469 kts | 50° |
| 2026-05-07 15:05 | 51.87919 | 0.89869 | 28398 ft | 466 kts | 70° |
| 2026-05-07 15:05 | 51.88589 | 0.94983 | 28823 ft | 466 kts | 89° |
| 2026-05-07 15:05 | 51.88592 | 1.00241 | 29094 ft | 468 kts | 91° |
| 2026-05-07 15:05 | 51.88701 | 1.05526 | 29088 ft | 470 kts | 86° |
| 2026-05-07 15:06 | 51.89648 | 1.14978 | 29073 ft | 468 kts | 77° |
| 2026-05-07 15:06 | 51.91371 | 1.25061 | 29086 ft | 471 kts | 74° |
| 2026-05-07 15:07 | 51.93278 | 1.35305 | 29085 ft | 476 kts | 74° |
| 2026-05-07 15:07 | 51.95134 | 1.45591 | 29082 ft | 474 kts | 75° |
| 2026-05-07 15:08 | 51.96948 | 1.55894 | 29081 ft | 474 kts | 75° |
| 2026-05-07 15:08 | 51.98556 | 1.65079 | 29081 ft | 473 kts | 75° |
| 2026-05-07 15:09 | 52.00272 | 1.75307 | 29087 ft | 472 kts | 76° |
| 2026-05-07 15:09 | 52.01868 | 1.85658 | 29087 ft | 472 kts | 77° |
| 2026-05-07 15:10 | 52.03451 | 1.96002 | 29088 ft | 472 kts | 77° |
| 2026-05-07 15:10 | 52.04248 | 2.01187 | 28957 ft | 475 kts | 77° |
| 2026-05-07 15:10 | 52.05053 | 2.06410 | 28656 ft | 476 kts | 77° |
| 2026-05-07 15:11 | 52.05858 | 2.11638 | 28158 ft | 475 kts | 77° |
| 2026-05-07 15:11 | 52.06655 | 2.16834 | 27679 ft | 474 kts | 76° |
| 2026-05-07 15:11 | 52.07446 | 2.22006 | 27220 ft | 477 kts | 76° |
| 2026-05-07 15:11 | 52.08245 | 2.27248 | 26747 ft | 478 kts | 76° |
| 2026-05-07 15:12 | 52.09046 | 2.32527 | 26284 ft | 479 kts | 76° |
| 2026-05-07 15:12 | 52.09843 | 2.37788 | 25831 ft | 480 kts | 77° |
| 2026-05-07 15:12 | 52.10640 | 2.43067 | 25385 ft | 480 kts | 77° |
| 2026-05-07 15:12 | 52.11473 | 2.48332 | 24935 ft | 480 kts | 72° |
| 2026-05-07 15:13 | 52.12876 | 2.53200 | 24369 ft | 471 kts | 59° |
| 2026-05-07 15:13 | 52.14553 | 2.57659 | 23811 ft | 465 kts | 59° |
| 2026-05-07 15:13 | 52.16082 | 2.62309 | 23164 ft | 464 kts | 64° |
| 2026-05-07 15:13 | 52.17416 | 2.67019 | 22240 ft | 450 kts | 65° |
| 2026-05-07 15:14 | 52.18698 | 2.71626 | 21132 ft | 441 kts | 65° |
| 2026-05-07 15:14 | 52.19944 | 2.76110 | 20465 ft | 433 kts | 65° |
| 2026-05-07 15:14 | 52.21201 | 2.80641 | 19769 ft | 442 kts | 65° |
| 2026-05-07 15:14 | 52.22467 | 2.85216 | 19083 ft | 442 kts | 66° |
| 2026-05-07 15:15 | 52.23708 | 2.89710 | 18420 ft | 436 kts | 65° |
| 2026-05-07 15:15 | 52.24944 | 2.94195 | 17630 ft | 430 kts | 66° |
| 2026-05-07 15:15 | 52.26165 | 2.98633 | 16831 ft | 426 kts | 66° |
| 2026-05-07 15:15 | 52.27372 | 3.03031 | 16055 ft | 422 kts | 66° |
| 2026-05-07 15:16 | 52.28560 | 3.07367 | 15323 ft | 411 kts | 66° |
| 2026-05-07 15:16 | 52.29706 | 3.11558 | 14761 ft | 397 kts | 66° |
| 2026-05-07 15:16 | 52.30808 | 3.15595 | 14221 ft | 390 kts | 66° |
| 2026-05-07 15:16 | 52.31911 | 3.19644 | 13660 ft | 391 kts | 66° |
| 2026-05-07 15:17 | 52.33018 | 3.23714 | 12966 ft | 391 kts | 66° |
| 2026-05-07 15:17 | 52.34123 | 3.27780 | 12283 ft | 390 kts | 66° |
| 2026-05-07 15:17 | 52.35223 | 3.31837 | 11623 ft | 388 kts | 66° |
| 2026-05-07 15:17 | 52.36296 | 3.35805 | 10995 ft | 383 kts | 66° |
| 2026-05-07 15:18 | 52.37362 | 3.39749 | 10513 ft | 375 kts | 66° |
| 2026-05-07 15:18 | 52.38408 | 3.43625 | 10024 ft | 368 kts | 66° |
| 2026-05-07 15:18 | 52.39428 | 3.47413 | 9492 ft | 363 kts | 67° |
| 2026-05-07 15:18 | 52.40305 | 3.51296 | 8940 ft | 359 kts | 79° |
| 2026-05-07 15:19 | 52.40419 | 3.55273 | 8404 ft | 342 kts | 99° |
| 2026-05-07 15:19 | 52.39849 | 3.58980 | 7904 ft | 332 kts | 110° |
| 2026-05-07 15:19 | 52.39127 | 3.62494 | 7409 ft | 328 kts | 110° |
| 2026-05-07 15:19 | 52.38400 | 3.65993 | 7162 ft | 316 kts | 110° |
| 2026-05-07 15:20 | 52.37714 | 3.69313 | 7098 ft | 300 kts | 110° |
| 2026-05-07 15:20 | 52.37059 | 3.72495 | 7095 ft | 292 kts | 110° |
| 2026-05-07 15:20 | 52.36426 | 3.75589 | 7080 ft | 279 kts | 110° |
| 2026-05-07 15:20 | 52.35821 | 3.78551 | 7093 ft | 273 kts | 110° |
| 2026-05-07 15:21 | 52.35228 | 3.81459 | 7044 ft | 273 kts | 110° |
| 2026-05-07 15:21 | 52.34620 | 3.84438 | 6799 ft | 275 kts | 110° |
| 2026-05-07 15:21 | 52.34015 | 3.87403 | 6647 ft | 272 kts | 110° |
| 2026-05-07 15:21 | 52.33417 | 3.90335 | 6474 ft | 269 kts | 110° |
| 2026-05-07 15:22 | 52.32836 | 3.93187 | 6305 ft | 267 kts | 110° |
| 2026-05-07 15:22 | 52.32247 | 3.96070 | 6078 ft | 268 kts | 110° |
| 2026-05-07 15:22 | 52.31652 | 3.98976 | 5757 ft | 271 kts | 110° |
| 2026-05-07 15:22 | 52.31052 | 4.01904 | 5472 ft | 269 kts | 109° |
| 2026-05-07 15:23 | 52.30461 | 4.04785 | 5208 ft | 266 kts | 109° |
| 2026-05-07 15:23 | 52.29884 | 4.07598 | 4960 ft | 263 kts | 109° |
| 2026-05-07 15:23 | 52.29302 | 4.10429 | 4723 ft | 262 kts | 109° |
| 2026-05-07 15:23 | 52.28722 | 4.13248 | 4488 ft | 261 kts | 109° |
| 2026-05-07 15:24 | 52.28143 | 4.16056 | 4260 ft | 260 kts | 108° |
| 2026-05-07 15:24 | 52.27575 | 4.18807 | 4004 ft | 250 kts | 108° |
| 2026-05-07 15:24 | 52.27030 | 4.21444 | 3751 ft | 240 kts | 108° |
| 2026-05-07 15:24 | 52.26508 | 4.23968 | 3524 ft | 234 kts | 108° |
| 2026-05-07 15:25 | 52.25997 | 4.26433 | 3304 ft | 231 kts | 108° |
| 2026-05-07 15:25 | 52.25480 | 4.28927 | 3158 ft | 232 kts | 108° |
| 2026-05-07 15:25 | 52.24957 | 4.31445 | 3009 ft | 235 kts | 108° |
| 2026-05-07 15:25 | 52.24431 | 4.33978 | 2855 ft | 236 kts | 108° |
| 2026-05-07 15:26 | 52.23911 | 4.36475 | 2706 ft | 235 kts | 108° |
| 2026-05-07 15:26 | 52.23388 | 4.38989 | 2546 ft | 232 kts | 108° |
| 2026-05-07 15:26 | 52.22870 | 4.41475 | 2386 ft | 230 kts | 108° |
| 2026-05-07 15:26 | 52.22352 | 4.43950 | 2275 ft | 232 kts | 108° |
| 2026-05-07 15:27 | 52.21828 | 4.46456 | 2108 ft | 231 kts | 108° |
| 2026-05-07 15:27 | 52.21317 | 4.48907 | 2035 ft | 223 kts | 107° |
| 2026-05-07 15:27 | 52.20876 | 4.51242 | 1952 ft | 207 kts | 92° |
| 2026-05-07 15:27 | 52.21203 | 4.53343 | 2020 ft | 190 kts | 58° |
| 2026-05-07 15:28 | 52.21869 | 4.55182 | 2016 ft | 191 kts | 59° |
| 2026-05-07 15:28 | 52.22535 | 4.57010 | 2018 ft | 184 kts | 56° |
| 2026-05-07 15:28 | 52.23220 | 4.58752 | 2003 ft | 179 kts | 58° |
| 2026-05-07 15:28 | 52.23865 | 4.60504 | 1897 ft | 184 kts | 57° |
| 2026-05-07 15:29 | 52.24546 | 4.62303 | 1647 ft | 185 kts | 57° |
| 2026-05-07 15:29 | 52.25209 | 4.64036 | 1395 ft | 174 kts | 56° |
| 2026-05-07 15:29 | 52.25827 | 4.65652 | 1181 ft | 160 kts | 56° |
| 2026-05-07 15:29 | 52.26388 | 4.67124 | 989 ft | 147 kts | 55° |
| 2026-05-07 15:30 | 52.26898 | 4.68460 | 788 ft | 131 kts | 56° |
| 2026-05-07 15:30 | 52.27361 | 4.69711 | 654 ft | 131 kts | 57° |
| 2026-05-07 15:30 | 52.27833 | 4.71003 | 441 ft | 133 kts | 55° |
| 2026-05-07 15:30 | 52.28335 | 4.72260 | 247 ft | 133 kts | 54° |
| 2026-05-07 15:31 | 52.28829 | 4.73533 | 68 ft | 132 kts | 55° |
| 2026-05-07 15:31 | 52.29304 | 4.74743 | -1 ft | 114 kts | 58° |
| 2026-05-07 15:31 | 52.29648 | 4.75641 | -2 ft | 52 kts | 53° |
| 2026-05-07 15:31 | 52.29840 | 4.75854 | -2 ft | 18 kts | 27° |
| 2026-05-07 15:32 | 52.29883 | 4.75890 | -2 ft | 6 kts | 27° |
| 2026-05-07 15:32 | 52.29917 | 4.75919 | -2 ft | 6 kts | 27° |
| 2026-05-07 15:32 | 52.29951 | 4.75947 | -2 ft | 5 kts | 27° |
| 2026-05-07 15:32 | 52.29983 | 4.75978 | -2 ft | 5 kts | 38° |
| 2026-05-07 15:33 | 52.30006 | 4.76026 | -2 ft | 5 kts | 56° |
| 2026-05-07 15:33 | 52.30026 | 4.76076 | -2 ft | 5 kts | 59° |
| 2026-05-07 15:33 | 52.30044 | 4.76126 | -2 ft | 5 kts | 59° |
| 2026-05-07 15:33 | 52.30062 | 4.76174 | -2 ft | 5 kts | 58° |
| 2026-05-07 15:34 | 52.30081 | 4.76221 | -2 ft | 5 kts | 55° |
| 2026-05-07 15:34 | 52.30109 | 4.76272 | -2 ft | 7 kts | 34° |
| 2026-05-07 15:34 | 52.30140 | 4.76281 | -2 ft | 1 kts | 14° |
| 2026-05-07 15:34 | 52.30142 | 4.76300 | -2 ft | 3 kts | 84° |
| 2026-05-07 15:35 | 52.30147 | 4.76363 | -2 ft | 8 kts | 80° |
| 2026-05-07 15:35 | 52.30170 | 4.76453 | -2 ft | 9 kts | 59° |
| 2026-05-07 15:35 | 52.30201 | 4.76535 | -2 ft | 8 kts | 58° |
| 2026-05-07 15:35 | 52.30219 | 4.76580 | -2 ft | 3 kts | 58° |
| 2026-05-07 15:36 | 52.30230 | 4.76610 | -2 ft | 4 kts | 58° |
| 2026-05-07 15:36 | 52.30245 | 4.76649 | -2 ft | 4 kts | 58° |
| 2026-05-07 15:36 | 52.30260 | 4.76689 | -2 ft | 4 kts | 58° |
| 2026-05-07 15:36 | 52.30287 | 4.76758 | -2 ft | 10 kts | 58° |
| 2026-05-07 15:37 | 52.30324 | 4.76854 | -2 ft | 10 kts | 58° |
| 2026-05-07 15:37 | 52.30361 | 4.76948 | -2 ft | 10 kts | 58° |
| 2026-05-07 15:37 | 52.30396 | 4.77040 | -2 ft | 9 kts | 58° |
| 2026-05-07 15:37 | 52.30431 | 4.77129 | -2 ft | 9 kts | 57° |
| 2026-05-07 15:38 | 52.30464 | 4.77217 | -2 ft | 9 kts | 58° |
| 2026-05-07 15:38 | 52.30497 | 4.77306 | -2 ft | 10 kts | 58° |
| 2026-05-07 15:38 | 52.30540 | 4.77419 | -2 ft | 12 kts | 58° |
| 2026-05-07 15:38 | 52.30574 | 4.77503 | -2 ft | 8 kts | 51° |
| 2026-05-07 15:39 | 52.30615 | 4.77566 | -2 ft | 9 kts | 33° |
| 2026-05-07 15:39 | 52.30680 | 4.77589 | -2 ft | 10 kts | 3° |
| 2026-05-07 15:39 | 52.30747 | 4.77597 | -2 ft | 10 kts | 4° |
| 2026-05-07 15:39 | 52.30811 | 4.77585 | -2 ft | 9 kts | 329° |
| 2026-05-07 15:40 | 52.30830 | 4.77525 | -2 ft | 9 kts | 282° |
| 2026-05-07 15:40 | 52.30837 | 4.77438 | -2 ft | 5 kts | 274° |
| 2026-05-07 15:40 | 52.30838 | 4.77418 | -2 ft | 0 kts | 274° |
| 2026-05-07 15:40 | 52.30839 | 4.77389 | -2 ft | 5 kts | 272° |
| 2026-05-07 15:41 | 52.30822 | 4.77363 | -2 ft | 3 kts | 192° |
| 2026-05-07 15:41 | 52.30804 | 4.77359 | -2 ft | 3 kts | 186° |
| 2026-05-07 15:41 | 52.30788 | 4.77357 | -2 ft | 1 kts | 184° |
| 2026-05-07 15:41 | 52.30785 | 4.77356 | -2 ft | 0 kts | 184° |